createdAt,value
2023-04-18T00:01:31.885Z,6.74
2023-04-18T00:03:58.687Z,6.68
2023-04-18T00:06:25.963Z,6.64
2023-04-18T00:08:52.644Z,6.66
2023-04-18T00:11:19.281Z,6.70
2023-04-18T00:13:47.419Z,6.69
2023-04-18T00:16:14.700Z,6.69
2023-04-18T00:18:41.380Z,6.72
2023-04-18T00:21:08.732Z,6.67
2023-04-18T00:23:36.025Z,6.72
2023-04-18T00:26:03.111Z,6.70
2023-04-18T00:28:29.748Z,6.70
2023-04-18T00:30:56.613Z,6.67
2023-04-18T00:33:23.264Z,6.69
2023-04-18T00:35:52.053Z,6.69
2023-04-18T00:38:18.616Z,6.73
2023-04-18T00:40:47.800Z,6.75
2023-04-18T00:43:14.682Z,6.77
2023-04-18T00:45:41.351Z,6.73
2023-04-18T00:48:09.104Z,6.77
2023-04-18T00:50:37.516Z,6.72
2023-04-18T00:53:04.661Z,6.69
2023-04-18T00:55:31.622Z,6.71
2023-04-18T00:57:58.611Z,6.71
2023-04-18T01:00:25.793Z,6.75
2023-04-18T01:02:55.697Z,6.71
2023-04-18T01:05:23.280Z,6.69
2023-04-18T01:07:50.035Z,6.67
2023-04-18T01:10:16.705Z,6.73
2023-04-18T01:12:43.381Z,6.76
2023-04-18T01:15:10.293Z,6.71
2023-04-18T01:17:38.463Z,6.72
2023-04-18T01:20:06.355Z,6.72
2023-04-18T01:22:33.719Z,6.71
2023-04-18T01:25:00.550Z,6.70
2023-04-18T01:27:27.200Z,6.69
2023-04-18T01:29:53.837Z,6.70
2023-04-18T01:32:22.550Z,6.72
2023-04-18T01:34:49.332Z,6.69
2023-04-18T01:37:15.925Z,6.64
2023-04-18T01:39:42.485Z,6.58
2023-04-18T01:42:09.085Z,6.59
2023-04-18T01:44:37.231Z,6.60
2023-04-18T01:47:05.086Z,6.54
2023-04-18T01:49:32.686Z,6.59
2023-04-18T01:51:59.241Z,6.56
2023-04-18T01:54:25.811Z,6.52
2023-04-18T01:56:52.516Z,6.52
2023-04-18T01:59:19.133Z,6.52
2023-04-18T02:01:46.154Z,6.51
2023-04-18T02:04:13.342Z,6.51
2023-04-18T02:06:40.303Z,6.45
2023-04-18T02:09:06.889Z,6.44
2023-04-18T02:11:33.532Z,6.40
2023-04-18T02:14:02.822Z,6.39
2023-04-18T02:16:29.515Z,6.39
2023-04-18T02:18:56.525Z,6.40
2023-04-18T02:21:23.202Z,6.47
2023-04-18T02:23:49.828Z,6.40
2023-04-18T02:26:16.457Z,6.36
2023-04-18T02:28:43.067Z,6.31
2023-04-18T02:31:14.722Z,6.28
2023-04-18T02:33:47.205Z,6.32
2023-04-18T02:36:13.914Z,6.34
2023-04-18T02:38:42.222Z,6.42
2023-04-18T02:41:08.911Z,6.43
2023-04-18T02:43:35.555Z,6.45
2023-04-18T02:46:03.014Z,6.43
2023-04-18T02:48:29.672Z,6.40
2023-04-18T02:51:04.962Z,6.42
2023-04-18T02:53:34.979Z,6.34
2023-04-18T02:56:02.546Z,6.28
2023-04-18T02:58:49.804Z,6.31
2023-04-18T03:01:48.704Z,6.28
2023-04-18T03:04:18.485Z,6.27
2023-04-18T03:06:56.039Z,6.29
2023-04-18T03:09:22.602Z,6.25
2023-04-18T03:11:54.776Z,6.26
2023-04-18T03:14:25.377Z,6.28
2023-04-18T03:16:55.513Z,6.17
2023-04-18T03:19:26.580Z,6.09
2023-04-18T03:21:54.949Z,6.02
2023-04-18T03:24:22.182Z,6.01
2023-04-18T03:26:51.664Z,6.02
2023-04-18T03:29:21.412Z,5.97
2023-04-18T03:31:48.110Z,5.97
2023-04-18T03:34:15.178Z,6.02
2023-04-18T03:36:42.122Z,6.03
2023-04-18T03:39:10.897Z,5.99
2023-04-18T03:41:37.670Z,5.90
2023-04-18T03:44:04.692Z,5.89
2023-04-18T03:46:35.407Z,5.88
2023-04-18T03:49:02.848Z,5.85
2023-04-18T03:51:34.457Z,5.83
2023-04-18T03:54:01.585Z,5.81
2023-04-18T03:56:28.395Z,5.82
2023-04-18T03:58:55.576Z,5.82
2023-04-18T04:01:22.674Z,5.76
2023-04-18T04:03:51.608Z,5.78
2023-04-18T04:06:18.773Z,5.73
2023-04-18T04:08:45.455Z,5.73
2023-04-18T04:11:12.677Z,5.73
2023-04-18T04:13:39.398Z,5.74
2023-04-18T04:16:07.098Z,5.77
2023-04-18T04:18:33.949Z,5.80
2023-04-18T04:21:03.497Z,5.73
2023-04-18T04:23:46.178Z,5.65
2023-04-18T04:26:23.463Z,5.68
2023-04-18T04:29:02.181Z,5.74
2023-04-18T04:31:28.984Z,5.77
2023-04-18T04:33:57.250Z,5.70
2023-04-18T04:36:27.089Z,5.68
2023-04-18T04:38:55.102Z,5.68
2023-04-18T04:41:31.575Z,5.64
2023-04-18T04:43:59.558Z,5.60
2023-04-18T04:46:30.678Z,5.58
2023-04-18T04:48:59.075Z,5.58
2023-04-18T04:51:27.954Z,5.62
2023-04-18T04:53:54.778Z,5.66
2023-04-18T04:56:23.673Z,5.69
2023-04-18T04:58:50.511Z,5.65
2023-04-18T05:01:24.039Z,5.65
2023-04-18T05:03:52.510Z,5.57
2023-04-18T05:06:20.793Z,5.59
2023-04-18T05:08:48.237Z,5.55
2023-04-18T05:11:15.712Z,5.53
2023-04-18T05:13:42.656Z,5.52
2023-04-18T05:16:09.529Z,5.51
2023-04-18T05:18:41.029Z,5.50
2023-04-18T05:21:07.817Z,5.59
2023-04-18T05:23:37.433Z,5.65
2023-04-18T05:26:05.455Z,5.73
2023-04-18T05:28:32.596Z,5.70
2023-04-18T05:31:02.103Z,5.62
2023-04-18T05:33:32.098Z,5.56
2023-04-18T05:35:59.144Z,5.57
2023-04-18T05:38:25.978Z,5.55
2023-04-18T05:40:55.369Z,5.53
2023-04-18T05:43:22.262Z,5.54
2023-04-18T05:45:49.023Z,5.52
2023-04-18T05:48:15.679Z,5.58
2023-04-18T05:50:42.314Z,5.57
2023-04-18T05:53:08.978Z,5.48
2023-04-18T05:55:35.784Z,5.42
2023-04-18T05:58:02.474Z,5.40
2023-04-18T06:00:31.497Z,5.34
2023-04-18T06:02:58.224Z,5.32
2023-04-18T06:05:25.082Z,5.33
2023-04-18T06:07:51.857Z,5.40
2023-04-18T06:10:19.015Z,5.48
2023-04-18T06:12:45.697Z,5.57
2023-04-18T06:15:12.909Z,5.69
2023-04-18T06:17:39.781Z,5.68
2023-04-18T06:20:07.044Z,5.63
2023-04-18T06:22:36.681Z,5.66
2023-04-18T06:25:03.597Z,5.60
2023-04-18T06:27:31.946Z,5.61
2023-04-18T06:29:58.857Z,5.62
2023-04-18T06:32:26.148Z,5.64
2023-04-18T06:34:53.086Z,5.66
2023-04-18T06:37:20.173Z,5.63
2023-04-18T06:39:47.100Z,5.67
2023-04-18T06:42:13.785Z,5.75
2023-04-18T06:44:44.398Z,5.82
2023-04-18T06:47:11.240Z,5.80
2023-04-18T06:49:37.819Z,5.84
2023-04-18T06:52:04.435Z,5.91
2023-04-18T06:54:31.023Z,5.95
2023-04-18T06:56:57.720Z,5.86
2023-04-18T06:59:24.382Z,5.81
2023-04-18T07:01:51.329Z,5.82
2023-04-18T07:04:18.194Z,5.87
2023-04-18T07:06:45.270Z,5.87
2023-04-18T07:09:11.860Z,5.75
2023-04-18T07:11:40.829Z,5.69
2023-04-18T07:14:07.527Z,5.66
2023-04-18T07:16:34.749Z,5.56
2023-04-18T07:19:01.477Z,5.57
2023-04-18T07:21:28.465Z,5.58
2023-04-18T07:23:55.357Z,5.72
2023-04-18T07:26:22.106Z,5.75
2023-04-18T07:28:49.468Z,5.80
2023-04-18T07:31:16.564Z,5.88
2023-04-18T07:33:43.823Z,5.92
2023-04-18T07:36:10.859Z,5.97
2023-04-18T07:38:38.032Z,5.98
2023-04-18T07:41:05.033Z,5.97
2023-04-18T07:43:34.482Z,6.02
2023-04-18T07:46:01.118Z,6.02
2023-04-18T07:48:28.442Z,6.03
2023-04-18T07:50:55.159Z,6.04
2023-04-18T07:53:21.799Z,6.03
2023-04-18T07:55:48.457Z,6.05
2023-04-18T07:58:15.051Z,6.08
2023-04-18T08:00:43.907Z,6.25
2023-04-18T08:03:12.143Z,6.29
2023-04-18T08:05:40.231Z,6.32
2023-04-18T08:08:08.370Z,6.29
2023-04-18T08:10:36.590Z,6.36
2023-04-18T08:13:04.028Z,6.32
2023-04-18T08:15:32.605Z,6.28
2023-04-18T08:18:00.880Z,6.35
2023-04-18T08:20:27.797Z,6.33
2023-04-18T08:23:05.610Z,6.43
2023-04-18T08:25:33.723Z,6.43
2023-04-18T08:28:00.400Z,6.49
2023-04-18T08:30:27.172Z,6.52
2023-04-18T08:32:53.976Z,6.60
2023-04-18T08:35:20.762Z,6.63
2023-04-18T08:37:47.424Z,6.57
2023-04-18T08:40:14.055Z,6.60
2023-04-18T08:42:44.616Z,6.52
2023-04-18T08:45:14.187Z,6.52
2023-04-18T08:47:41.646Z,6.49
2023-04-18T08:50:10.012Z,6.56
2023-04-18T08:52:39.338Z,6.68
2023-04-18T08:55:07.386Z,6.87
2023-04-18T08:57:35.751Z,6.95
2023-04-18T09:00:04.466Z,6.96
2023-04-18T09:02:43.615Z,6.77
2023-04-18T09:05:13.024Z,6.63
2023-04-18T09:07:40.679Z,6.65
2023-04-18T09:10:07.935Z,6.83
2023-04-18T09:12:42.654Z,6.85
2023-04-18T09:15:11.205Z,6.91
2023-04-18T09:17:45.984Z,6.86
2023-04-18T09:20:15.677Z,6.77
2023-04-18T09:22:45.956Z,6.62
2023-04-18T09:25:24.812Z,6.55
2023-04-18T09:27:52.443Z,6.53
2023-04-18T09:30:39.865Z,6.53
2023-04-18T09:33:10.183Z,6.47
2023-04-18T09:35:37.965Z,6.52
2023-04-18T09:38:05.885Z,6.37
2023-04-18T09:40:33.034Z,6.31
2023-04-18T09:43:00.602Z,6.28
2023-04-18T09:45:27.301Z,6.30
2023-04-18T09:47:54.283Z,6.39
2023-04-18T09:50:21.293Z,6.49
2023-04-18T09:52:48.427Z,6.58
2023-04-18T09:55:17.461Z,6.65
2023-04-18T09:57:47.098Z,6.73
2023-04-18T10:00:24.867Z,6.69
2023-04-18T10:02:53.414Z,6.72
2023-04-18T10:05:24.031Z,6.76
2023-04-18T10:07:53.470Z,6.86
2023-04-18T10:10:20.517Z,6.86
2023-04-18T10:12:48.788Z,6.89
2023-04-18T10:15:16.868Z,6.91
2023-04-18T10:20:32.394Z,6.72
2023-04-18T10:22:59.952Z,6.80
2023-04-18T10:25:38.649Z,6.77
2023-04-18T10:28:09.769Z,6.75
2023-04-18T10:30:42.178Z,6.84
2023-04-18T10:33:31.059Z,6.93
2023-04-18T10:36:22.333Z,6.80
2023-04-18T10:38:49.545Z,6.80
2023-04-18T10:41:23.445Z,6.73
2023-04-18T10:44:08.967Z,6.73
2023-04-18T10:46:37.037Z,6.84
2023-04-18T10:49:16.949Z,6.92
2023-04-18T10:51:58.569Z,6.90
2023-04-18T10:54:37.709Z,6.90
2023-04-18T10:57:07.514Z,6.89
2023-04-18T10:59:39.479Z,6.93
2023-04-18T11:02:24.204Z,7.04
2023-04-18T11:04:52.550Z,7.09
2023-04-18T11:07:19.707Z,7.11
2023-04-18T11:09:57.246Z,7.17
2023-04-18T11:12:23.884Z,7.22
2023-04-18T11:14:52.200Z,7.22
2023-04-18T11:17:23.840Z,7.23
2023-04-18T11:19:59.024Z,7.22
2023-04-18T11:22:25.885Z,7.20
2023-04-18T11:24:57.219Z,7.29
2023-04-18T11:27:25.733Z,7.41
2023-04-18T11:29:54.124Z,7.41
2023-04-18T11:32:23.202Z,7.41
2023-04-18T11:34:55.193Z,7.40
2023-04-18T11:37:22.489Z,7.43
2023-04-18T11:39:54.488Z,7.48
2023-04-18T11:42:32.150Z,7.52
2023-04-18T11:44:58.768Z,7.49
2023-04-18T11:47:27.599Z,7.41
2023-04-18T11:50:02.764Z,7.43
2023-04-18T11:52:31.382Z,7.39
2023-04-18T11:55:25.009Z,7.38
2023-04-18T11:57:55.554Z,7.35
2023-04-18T12:00:34.293Z,7.38
2023-04-18T12:03:04.646Z,7.41
2023-04-18T12:05:33.992Z,7.46
2023-04-18T12:08:06.785Z,7.50
2023-04-18T12:10:33.552Z,7.46
2023-04-18T12:13:00.343Z,7.49
2023-04-18T12:15:29.133Z,7.51
2023-04-18T12:18:04.781Z,7.47
2023-04-18T12:20:51.513Z,7.44
2023-04-18T12:23:38.941Z,7.51
2023-04-18T12:26:13.611Z,7.48
2023-04-18T12:28:45.018Z,7.46
2023-04-18T12:31:11.880Z,7.48
2023-04-18T12:33:38.515Z,7.49
2023-04-18T12:36:06.036Z,7.53
2023-04-18T12:38:32.656Z,7.52
2023-04-18T12:40:59.258Z,7.55
2023-04-18T12:43:25.897Z,7.66
2023-04-18T12:45:52.571Z,7.72
2023-04-18T12:48:19.232Z,7.77
2023-04-18T12:50:45.885Z,7.77
2023-04-18T12:53:12.474Z,7.74
2023-04-18T12:55:39.103Z,7.67
2023-04-18T12:58:05.697Z,7.71
2023-04-18T13:00:32.938Z,7.73
2023-04-18T13:03:00.169Z,7.74
2023-04-18T13:05:32.457Z,7.76
2023-04-18T13:08:12.808Z,7.73
2023-04-18T13:10:42.549Z,7.75
2023-04-18T13:13:09.154Z,7.72
2023-04-18T13:15:36.223Z,7.75
2023-04-18T13:18:06.177Z,7.77
2023-04-18T13:20:34.376Z,7.75
2023-04-18T13:23:03.031Z,7.66
2023-04-18T13:25:29.665Z,7.64
2023-04-18T13:27:58.303Z,7.59
2023-04-18T13:30:24.983Z,7.64
2023-04-18T13:32:51.751Z,7.67
2023-04-18T13:35:18.535Z,7.68
2023-04-18T13:37:46.981Z,7.67
2023-04-18T13:40:13.698Z,7.67
2023-04-18T13:42:41.502Z,7.66
2023-04-18T13:45:08.323Z,7.63
2023-04-18T13:47:35.084Z,7.65
2023-04-18T13:50:01.895Z,7.62
2023-04-18T13:52:28.569Z,7.65
2023-04-18T13:54:55.341Z,7.65
2023-04-18T13:57:23.042Z,7.76
2023-04-18T13:59:49.702Z,7.80
2023-04-18T14:02:16.558Z,7.81
2023-04-18T14:04:43.419Z,7.87
2023-04-18T14:07:10.007Z,7.86
2023-04-18T14:09:38.372Z,7.98
2023-04-18T14:12:05.659Z,8.01
2023-04-18T14:14:32.257Z,7.98
2023-04-18T14:16:58.914Z,7.99
2023-04-18T14:19:27.076Z,8.06
2023-04-18T14:21:53.682Z,8.07
2023-04-18T14:24:20.376Z,8.05
2023-04-18T14:26:47.882Z,8.11
2023-04-18T14:29:15.088Z,8.15
2023-04-18T14:31:42.066Z,8.15
2023-04-18T14:34:09.589Z,8.12
2023-04-18T14:36:36.491Z,8.06
2023-04-18T14:39:04.670Z,8.04
2023-04-18T14:41:31.341Z,8.06
2023-04-18T14:43:58.016Z,8.04
2023-04-18T14:46:27.125Z,8.03
2023-04-18T14:48:54.306Z,8.05
2023-04-18T14:51:21.033Z,8.02
2023-04-18T14:53:47.626Z,8.08
2023-04-18T14:56:15.834Z,8.01
2023-04-18T14:58:42.884Z,7.96
2023-04-18T15:01:09.605Z,7.93
2023-04-18T15:03:36.381Z,7.97
2023-04-18T15:06:03.097Z,7.95
2023-04-18T15:08:32.685Z,7.96
2023-04-18T15:10:59.623Z,7.90
2023-04-18T15:13:26.312Z,7.89
2023-04-18T15:15:54.082Z,7.90
2023-04-18T15:18:21.158Z,7.91
2023-04-18T15:20:47.777Z,7.89
2023-04-18T15:23:14.804Z,7.91
2023-04-18T15:25:42.284Z,7.90
2023-04-18T15:28:08.987Z,7.84
2023-04-18T15:30:36.273Z,7.80
2023-04-18T15:33:02.920Z,7.80
2023-04-18T15:35:29.587Z,7.82
2023-04-18T15:37:57.629Z,7.83
2023-04-18T15:40:24.342Z,7.81
2023-04-18T15:42:53.416Z,7.80
2023-04-18T15:45:21.343Z,7.90
2023-04-18T15:47:48.163Z,7.94
2023-04-18T15:50:16.229Z,7.94
2023-04-18T15:52:43.421Z,7.91
2023-04-18T15:55:13.403Z,7.93
2023-04-18T15:57:41.734Z,7.99
2023-04-18T16:00:17.405Z,7.96
2023-04-18T16:02:45.050Z,7.96
2023-04-18T16:05:12.886Z,7.89
2023-04-18T16:07:40.572Z,7.87
2023-04-18T16:10:09.976Z,7.89
2023-04-18T16:12:37.709Z,7.92
2023-04-18T16:15:06.744Z,7.98
2023-04-18T16:17:34.572Z,8.01
2023-04-18T16:20:01.266Z,8.01
2023-04-18T16:22:27.973Z,8.02
2023-04-18T16:24:54.627Z,8.10
2023-04-18T16:27:21.293Z,8.08
2023-04-18T16:29:47.932Z,8.03
2023-04-18T16:32:14.545Z,8.05
2023-04-18T16:34:41.369Z,8.02
2023-04-18T16:37:08.653Z,8.01
2023-04-18T16:39:35.289Z,8.01
2023-04-18T16:42:03.475Z,8.06
2023-04-18T16:44:30.682Z,8.07
2023-04-18T16:46:57.343Z,8.10
2023-04-18T16:49:24.213Z,8.09
2023-04-18T16:51:51.019Z,8.09
2023-04-18T16:54:17.845Z,8.09
2023-04-18T16:56:44.817Z,8.06
2023-04-18T16:59:11.488Z,8.02
2023-04-18T17:01:38.332Z,7.99
2023-04-18T17:04:05.631Z,8.00
2023-04-18T17:06:32.649Z,8.07
2023-04-18T17:08:59.364Z,8.01
2023-04-18T17:11:26.578Z,7.98
2023-04-18T17:13:53.375Z,7.94
2023-04-18T17:16:20.132Z,7.94
2023-04-18T17:18:46.824Z,7.95
2023-04-18T17:21:13.550Z,7.96
2023-04-18T17:23:42.228Z,7.93
2023-04-18T17:26:09.891Z,7.96
2023-04-18T17:28:36.571Z,7.98
2023-04-18T17:31:03.726Z,8.00
2023-04-18T17:33:31.603Z,8.02
2023-04-18T17:35:58.659Z,8.05
2023-04-18T17:38:25.581Z,8.05
2023-04-18T17:41:02.407Z,8.01
2023-04-18T17:43:29.443Z,8.04
2023-04-18T17:46:00.091Z,8.06
2023-04-18T17:48:26.686Z,8.05
2023-04-18T17:50:53.294Z,8.06
2023-04-18T17:53:19.908Z,8.07
2023-04-18T17:55:48.861Z,8.09
2023-04-18T17:58:17.519Z,8.07
2023-04-18T18:00:45.006Z,8.06
2023-04-18T18:03:16.000Z,8.05
2023-04-18T18:05:46.490Z,8.06
2023-04-18T18:08:14.335Z,8.04
2023-04-18T18:10:41.307Z,8.02
2023-04-18T18:13:08.019Z,8.04
2023-04-18T18:15:35.915Z,8.07
2023-04-18T18:18:02.608Z,8.10
2023-04-18T18:20:29.402Z,8.10
2023-04-18T18:22:57.199Z,8.10
2023-04-18T18:25:23.794Z,8.13
2023-04-18T18:27:51.426Z,8.13
2023-04-18T18:30:18.858Z,8.15
2023-04-18T18:32:45.529Z,8.17
2023-04-18T18:35:12.508Z,8.18
2023-04-18T18:37:39.092Z,8.19
2023-04-18T18:40:06.565Z,8.19
2023-04-18T18:42:33.142Z,8.17
2023-04-18T18:45:01.386Z,8.13
2023-04-18T18:47:30.573Z,8.09
2023-04-18T18:49:58.103Z,8.08
2023-04-18T18:52:25.187Z,8.09
2023-04-18T18:54:52.961Z,8.15
2023-04-18T18:57:19.487Z,8.12
2023-04-18T18:59:46.209Z,8.08
2023-04-18T19:02:14.611Z,8.02
2023-04-18T19:04:42.240Z,8.02
2023-04-18T19:07:08.950Z,8.04
2023-04-18T19:09:36.849Z,8.07
2023-04-18T19:12:06.890Z,8.08
2023-04-18T19:14:34.428Z,8.07
2023-04-18T19:17:01.718Z,8.07
2023-04-18T19:19:28.370Z,8.05
2023-04-18T19:21:54.993Z,8.01
2023-04-18T19:24:21.843Z,8.02
2023-04-18T19:26:48.404Z,8.01
2023-04-18T19:29:15.546Z,8.00
2023-04-18T19:31:43.540Z,7.99
2023-04-18T19:34:11.762Z,7.98
2023-04-18T19:36:38.437Z,7.99
2023-04-18T19:39:05.015Z,7.97
2023-04-18T19:41:31.569Z,7.95
2023-04-18T19:43:58.205Z,7.97
2023-04-18T19:46:24.796Z,7.95
2023-04-18T19:48:52.521Z,7.95
2023-04-18T19:51:19.141Z,7.97
2023-04-18T19:53:45.760Z,7.96
2023-04-18T19:56:14.189Z,7.95
2023-04-18T19:58:46.549Z,7.92
2023-04-18T20:01:14.516Z,7.90
2023-04-18T20:03:42.532Z,7.89
2023-04-18T20:06:09.984Z,7.89
2023-04-18T20:08:38.110Z,7.89
2023-04-18T20:11:07.758Z,7.87
2023-04-18T20:13:36.586Z,7.85
2023-04-18T20:16:08.739Z,7.82
2023-04-18T20:18:41.201Z,7.83
2023-04-18T20:21:09.184Z,7.83
2023-04-18T20:23:36.710Z,7.84
2023-04-18T20:26:04.372Z,7.85
2023-04-18T20:28:31.859Z,7.88
2023-04-18T20:30:58.958Z,7.85
2023-04-18T20:33:26.047Z,7.84
2023-04-18T20:35:54.633Z,7.82
2023-04-18T20:38:25.873Z,7.79
2023-04-18T20:40:54.182Z,7.78
2023-04-18T20:43:21.373Z,7.77
2023-04-18T20:45:50.840Z,7.77
2023-04-18T20:48:18.153Z,7.77
2023-04-18T20:50:50.833Z,7.75
2023-04-18T20:53:21.848Z,7.76
2023-04-18T20:55:48.876Z,7.77
2023-04-18T20:58:15.704Z,7.75
2023-04-18T21:00:43.693Z,7.75
2023-04-18T21:03:14.777Z,7.73
2023-04-18T21:05:43.483Z,7.75
2023-04-18T21:08:13.082Z,7.75
2023-04-18T21:10:39.804Z,7.74
2023-04-18T21:13:06.789Z,7.74
2023-04-18T21:15:35.223Z,7.72
2023-04-18T21:18:02.006Z,7.73
2023-04-18T21:20:28.711Z,7.72
2023-04-18T21:22:55.317Z,7.72
2023-04-18T21:25:21.981Z,7.72
2023-04-18T21:27:50.660Z,7.75
2023-04-18T21:30:17.741Z,7.76
2023-04-18T21:32:44.491Z,7.77
2023-04-18T21:35:11.523Z,7.77
2023-04-18T21:37:38.084Z,7.76
2023-04-18T21:40:05.250Z,7.76
2023-04-18T21:42:31.886Z,7.80
2023-04-18T21:44:58.469Z,7.83
2023-04-18T21:47:25.882Z,7.81
2023-04-18T21:49:52.560Z,7.79
2023-04-18T21:52:19.170Z,7.80
2023-04-18T21:54:45.870Z,7.79
2023-04-18T21:57:12.445Z,7.78
2023-04-18T21:59:39.084Z,7.79
2023-04-18T22:02:05.736Z,7.77
2023-04-18T22:04:33.859Z,7.76
2023-04-18T22:07:00.627Z,7.76
2023-04-18T22:09:27.252Z,7.75
2023-04-18T22:11:56.703Z,7.74
2023-04-18T22:14:24.812Z,7.78
2023-04-18T22:16:51.599Z,7.75
2023-04-18T22:19:19.250Z,7.75
2023-04-18T22:21:46.213Z,7.74
2023-04-18T22:24:13.035Z,7.72
2023-04-18T22:26:40.767Z,7.69
2023-04-18T22:29:07.404Z,7.67
2023-04-18T22:31:34.051Z,7.67
2023-04-18T22:34:00.707Z,7.67
2023-04-18T22:36:27.709Z,7.69
2023-04-18T22:38:54.417Z,7.67
2023-04-18T22:41:20.981Z,7.66
2023-04-18T22:43:47.618Z,7.64
2023-04-18T22:46:14.293Z,7.63
2023-04-18T22:48:40.923Z,7.63
2023-04-18T22:51:07.760Z,7.66
2023-04-18T22:53:34.338Z,7.65
2023-04-18T22:56:00.958Z,7.62
2023-04-18T22:58:27.592Z,7.60
2023-04-18T23:00:54.270Z,7.61
2023-04-18T23:11:48.449Z,7.62
2023-04-18T23:15:08.864Z,7.66
2023-04-18T23:17:35.698Z,7.71
2023-04-18T23:20:02.386Z,7.71
2023-04-18T23:22:29.063Z,7.76
2023-04-18T23:24:55.657Z,7.73
2023-04-18T23:27:22.251Z,7.71
2023-04-18T23:29:49.047Z,7.69
2023-04-18T23:32:15.980Z,7.63
2023-04-18T23:34:42.590Z,7.56
2023-04-18T23:37:12.018Z,7.54
2023-04-18T23:39:38.683Z,7.52
2023-04-18T23:42:05.411Z,7.48
2023-04-18T23:44:32.049Z,7.43
2023-04-18T23:46:58.917Z,7.41
2023-04-18T23:49:27.528Z,7.42
2023-04-18T23:51:54.184Z,7.41
2023-04-18T23:54:20.834Z,7.41
2023-04-18T23:56:47.385Z,7.42
2023-04-18T23:59:13.979Z,7.35
